MIDDLE PEAK RAWS NEAR KENTFIELD 2SW HADS current weather conditions

sailwx.info

Wind from 339 at 8 knots gusting 17

Air temperature 7.2° C
Dewpoint 7.2° C

Last reported at 2017-Oct-20 16:36 UTC.
Time now 2017-Oct-20 18:12 UTC

Location: N 37°56' W 122°35'.
View on Google Maps.

See reports from other nearby stations

  
Tides and Currents Weather Stations Pressure Air Temp Water Temp Dewpoint Dewpoint Depression Visibility Wind Speed Wind Dir Waves Ship Positions
date/time (UTC)wind fromknots sea level pressurealtimeterstation pressurevisibilityair tempwater tempwave heightnotes
2017-Oct-20 16:36 339 8 gusting 17 7.2
2017-Oct-20 15:36 333 11 gusting 17 6.7
2017-Oct-20 14:36 336 7 gusting 20 6.7
2017-Oct-20 13:36 337 11 gusting 21 6.7
2017-Oct-20 12:36 335 12 gusting 24 7.2
2017-Oct-20 11:36 326 13 gusting 26 7.2
2017-Oct-20 10:36 325 15 gusting 27 7.2
2017-Oct-20 09:36 324 19 gusting 30 6.7
2017-Oct-20 08:36 332 19 gusting 40 6.1
2017-Oct-20 07:36 327 27 gusting 43 7.2
2017-Oct-20 06:36 321 22 gusting 34 7.8
2017-Oct-20 05:36 171 13 gusting 26 11.1
2017-Oct-20 04:36 166 13 gusting 22 10.6
2017-Oct-20 03:36 163 12 gusting 20 10.0
2017-Oct-20 02:36 174 12 gusting 23 10.0
2017-Oct-20 01:36 172 11 gusting 20 9.4
2017-Oct-20 00:36 164 9 gusting 14 9.4
2017-Oct-19 23:36 178 7 gusting 15 10.0
2017-Oct-19 22:36 234 7 gusting 20 11.1
2017-Oct-19 21:36 259 11 gusting 19 12.2
2017-Oct-19 20:36 161 6 gusting 13 13.9
2017-Oct-19 19:36 292 6 gusting 13 13.9
2017-Oct-19 18:36 299 6 gusting 13 12.2
2017-Oct-19 17:36 308 8 gusting 14 11.1
2017-Oct-19 16:36 312 8 gusting 15 10.6
2017-Oct-19 15:36 308 9 gusting 19 8.9
2017-Oct-19 14:36 303 10 gusting 16 8.3
2017-Oct-19 13:36 285 6 gusting 14 8.9
2017-Oct-19 12:36 289 8 gusting 19 9.4
2017-Oct-19 11:36 302 12 gusting 20 9.4
2017-Oct-19 10:36 294 10 gusting 19 8.9
2017-Oct-19 09:36 277 12 gusting 19 13.9
2017-Oct-19 08:36 263 13 gusting 18 15.0
2017-Oct-19 07:36 281 11 gusting 16 16.1
2017-Oct-19 06:36 274 11 gusting 15 15.0
2017-Oct-19 05:36 290 12 gusting 16 15.0
2017-Oct-19 04:36 310 8 gusting 15 16.7
2017-Oct-19 03:36 310 12 gusting 19 16.7
2017-Oct-19 02:36 309 13 gusting 21 16.7
2017-Oct-19 01:36 311 14 gusting 21 16.7
2017-Oct-19 00:36 315 12 gusting 19 18.3
2017-Oct-18 23:36 321 10 gusting 16 20.6
2017-Oct-18 22:36 324 5 gusting 7 21.7
2017-Oct-18 21:36 321 4 gusting 5 21.7
2017-Oct-18 20:36 355 2 gusting 5 22.8
2017-Oct-18 19:36 110 2 gusting 6 23.9
2017-Oct-18 18:36 141 2 gusting 6 23.9